EEL RIVER CAMP CA US current weather conditions

sailwx.info

Wind from 003 at 8 knots gusting 17

Air temperature 20.0° C
Dewpoint 6.0° C

Last reported at 2016-Apr-30 23:28 UTC.
Time now 2016-May-01 00:25 UTC

Location: N 40°08' W 123°49'.
View on Google Maps.

See reports from other nearby stations

  
Tides and Currents Weather Stations Pressure Air Temp Water Temp Dewpoint Dewpoint Depression Visibility Wind Speed Wind Dir Waves Ship Positions
date/time (UTC)wind fromknots sea level pressurealtimeterstation pressurevisibilityair tempwater tempwave heightnotes
2016-Apr-30 23:28 003 8 gusting 17 20.0
2016-Apr-30 22:28 036 7 gusting 16 20.0
2016-Apr-30 21:28 028 6 gusting 14 20.6
2016-Apr-30 20:28 005 8 gusting 14 19.4
2016-Apr-30 19:28 335 4 gusting 13 19.4
2016-Apr-30 18:28 035 6 gusting 11 17.8
2016-Apr-30 17:28 052 3 gusting 8 16.1
2016-Apr-30 15:28 069 4 gusting 8 12.2
2016-Apr-30 14:28 041 3 gusting 6 9.4
2016-Apr-30 13:28 302 1 gusting 5 6.1
2016-Apr-30 12:28 344 2 gusting 5 7.2
2016-Apr-30 11:28 357 2 gusting 5 7.8
2016-Apr-30 10:28 273 2 gusting 4 8.3
2016-Apr-30 09:28 317 3 gusting 7 9.4
2016-Apr-30 08:28 052 1 gusting 6 10.0
2016-Apr-30 07:28 135 1 gusting 8 11.1
2016-Apr-30 06:28 006 6 gusting 13 12.2
2016-Apr-30 05:28 016 6 gusting 14 12.2
2016-Apr-30 04:28 335 5 gusting 14 12.2
2016-Apr-30 03:28 352 8 gusting 19 12.2
2016-Apr-30 02:28 345 9 gusting 23 12.8
2016-Apr-30 01:28 349 7 gusting 20 14.4
2016-Apr-30 00:28 356 8 gusting 19 15.6
2016-Apr-29 23:28 311 10 gusting 20 16.7
2016-Apr-29 22:28 350 7 gusting 16 17.2
2016-Apr-29 21:28 002 5 gusting 15 16.7
2016-Apr-29 20:28 001 4 gusting 13 16.1
2016-Apr-29 19:28 334 5 gusting 18 16.7
2016-Apr-29 18:28 318 7 gusting 13 15.0
2016-Apr-29 17:28 317 3 gusting 14 14.4
2016-Apr-29 16:28 359 6 gusting 15 13.3
2016-Apr-29 15:28 119 4 gusting 12 12.2
2016-Apr-29 14:28 040 4 gusting 9 11.1
2016-Apr-29 13:28 050 5 gusting 9 11.1
2016-Apr-29 12:28 356 2 gusting 7 11.1
2016-Apr-29 11:28 028 5 gusting 10 11.1
2016-Apr-29 10:28 047 5 gusting 12 11.1
2016-Apr-29 09:28 012 4 gusting 12 11.1
2016-Apr-29 08:28 027 6 gusting 11 11.1
2016-Apr-29 07:28 289 4 gusting 8 10.0
2016-Apr-29 06:28 019 6 gusting 12 10.6
2016-Apr-29 05:28 292 2 gusting 7 11.1
2016-Apr-29 04:28 038 5 gusting 13 11.1
2016-Apr-29 03:28 350 5 gusting 11 12.2
2016-Apr-29 02:28 316 4 gusting 11 13.9
2016-Apr-29 01:28 322 4 gusting 17 16.1
2016-Apr-29 00:28 011 6 gusting 19 16.7